Startpagina
METAR-TAF:

METAR-TAF

Vliegvelden :

Luchthaven Pointe-Noire

Pointe-Noire, Congo

breedte: 04-49S, lengte: 011-54E, hoogte: 17 m

Actueel weer

Dit bericht is 23 minuten geleden gemaakt, om 05:00 UTC
Weinig wind
Temperatuur 23°C
Vochtigheid 94%
Druk 1012 hPa
Zicht: 8000 m
Verspreide wolken op 1000 ft
Verspreide wolken op 2000 ft

METAR: FCPP 210500Z 00000KT 8000 SCT010 SCT020 23/22 Q1012 NOSIG

Tijdstip: 06:23 (05:23 UTC)

Verwachting

Dit bericht is 6 uur en het 23 minuten geleden gemaakt, om 23:00 UTC
Verwachting geldig van 21 om 00 UTC tot 21 om 24 UTC
Wind 7 kt uit het zuiden
Zicht: 8000 m
Verspreide wolken op 2000 ft
Weinig wolken op 3000 ft, Cumulonimbus.
Kans 30%
van 21 om 01 UTC tot 21 om 04 UTC
onweer
Wijzigt naar
van 21 om 05 UTC tot 21 om 07 UTC
Verspreide wolken op 1300 ft

TAF: FCPP 202300Z 2100/2124 18007KT 8000 SCT020 FEW030CB PROB30 2101/2104 TS BECMG 2105/2107 SCT013

Waarnemingen en weersverwachtingen van meer dan 4000 vliegvelden (METAR en TAF).

De beschikbare stations zijn de gele en rode punten op de kaart.

Ga met uw muis naar het station om de naam te zien.

Klik dan om waarnemingen en weersverwachtingen te zien.

kaart wijzigen: klik op de groene knoppen met een zwart kruis om in te zoomen, op de groene knop met een streepje om uit te zoomen of op de groene pijlen voor aangrenzende kaarten.


METAR-TAF: